Lingle, WY

3:01 PM MDT on September 17, 2014 (GMT -0600)
Heilig | Change Station
CLOSE
Current Station
Airport
Location: Scottsbluff,
Elevation: 3957 ft
Nearby Weather Stations
Active Advisory: Special Statement

Elev 3957 ft 41.87 °N, 103.60 °W | Updated 8 minutes ago

Mostly Cloudy
Mostly Cloudy
88 °F
Feels Like 88 °F
N
8
Wind Variable Wind from West

Today
High -- | Low -- °F
--% Chance of Precip.
Yesterday
High -- | Low -- °F
Precip. -- in
6:39 AM 7:03 PM
Waning Crescent, 33% visible
Pressure 29.82 in
Visibility 10.0 miles
Clouds Clear
Dew Point 40 °F
Humidity 18%
Rainfall 0.00 in
Snow Depth 1 in , 1 in , 0 in
UV 6 out of 12
Pollen 6.00 out of 12
Air Quality Not available.
Flu Activity Not available.
METAR KBFF 172053Z AUTO 27007KT 10SM CLR 31/04 A2995 RMK AO2 SLP097 T03110044 56013 $

More Conditions Fewer Conditions

Pressure 29.82 in
Visibility 10.0 miles
Clouds Clear
Dew Point 40 °F
Humidity 18%
Rainfall 0.00 in
Snow Depth 1 in , 1 in , 0 in
UV 6 out of 12
Pollen 6.00 out of 12
Air Quality Not available.
Flu Activity Not available.
METAR KBFF 172053Z AUTO 27007KT 10SM CLR 31/04 A2995 RMK AO2 SLP097 T03110044 56013 $

More Conditions Fewer Conditions

10-Day Weather Forecast

Almanac

Astronomy

Sep. 17, 2014 Rise Set
Actual Time 6:39 AM MDT 7:03 PM MDT
Civil Twilight 6:11 AM MDT 7:31 PM MDT
Nautical Twilight 5:38 AM MDT 8:04 PM MDT
Astronomical Twilight 5:04 AM MDT 8:38 PM MDT
Moon 12:37 AM MDT 3:19 PM MDT
Length of Visible Light 13h 19m
Length of Day
12h 23m
Tomorrow will be 2m 49s shorter.
Waning Crescent, 33% of the Moon is Illuminated
Today
Waning Crescent
Sep 24
New
Oct 1
First Quarter
Oct 8
Full
Oct 15
Last Quarter

Today's Extremes

State Highs State Lows

Community

WunderPhotos

Upload Photos

1,754,166 photos uploaded!

Nearby

Snow Depth

Station Depth Elevation
Blind Bull Summit 1 in 8900 ft
Willow Creek 1 in 8450 ft
Loomis Park 0 in 8240 ft
Kendall R.S. 0 in 7740 ft
Phillips Bench 0 in 8200 ft

Earthquake Activity

City Distance Mag. Time & Date
No recent earthquake activity has been reported nearby.
Minimum magnitude displayed is 2.5.

Coastal Water Temperatures

Place Temperature
No Stations Reporting

Nearby Weather Stations